createdAt,value
2018-05-13T00:00:12.840Z,21.65
2018-05-13T00:00:45.393Z,18.27
2018-05-13T00:01:17.903Z,17.80
2018-05-13T00:01:50.699Z,21.62
2018-05-13T00:02:23.905Z,20.55
2018-05-13T00:02:56.494Z,18.00
2018-05-13T00:03:29.029Z,19.85
2018-05-13T00:04:01.556Z,17.00
2018-05-13T00:04:34.068Z,18.33
2018-05-13T00:05:07.367Z,17.02
2018-05-13T00:05:39.877Z,20.65
2018-05-13T00:06:12.404Z,17.50
2018-05-13T00:06:44.921Z,15.98
2018-05-13T00:07:17.436Z,19.30
2018-05-13T00:07:49.976Z,17.70
2018-05-13T00:08:23.071Z,21.30
2018-05-13T00:08:56.055Z,18.65
2018-05-13T00:09:28.610Z,22.50
2018-05-13T00:10:01.158Z,17.60
2018-05-13T00:10:33.697Z,17.17
2018-05-13T00:11:06.242Z,20.88
2018-05-13T00:11:38.771Z,17.52
2018-05-13T00:12:11.308Z,20.08
2018-05-13T00:12:43.841Z,21.23
2018-05-13T00:13:16.460Z,16.62
2018-05-13T00:13:49.032Z,17.30
2018-05-13T00:14:21.614Z,18.77
2018-05-13T00:14:54.139Z,29.95
2018-05-13T00:15:26.676Z,21.90
2018-05-13T00:15:59.192Z,28.27
2018-05-13T00:16:31.756Z,20.40
2018-05-13T00:17:04.304Z,25.37
2018-05-13T00:17:36.867Z,20.83
2018-05-13T00:18:09.441Z,23.30
2018-05-13T00:18:41.952Z,25.25
2018-05-13T00:19:14.518Z,19.05
2018-05-13T00:19:47.022Z,17.58
2018-05-13T00:20:19.586Z,21.58
2018-05-13T00:20:52.108Z,25.20
2018-05-13T00:21:24.624Z,21.23
2018-05-13T00:21:57.129Z,19.77
2018-05-13T00:22:29.640Z,22.08
2018-05-13T00:23:02.150Z,29.12
2018-05-13T00:23:34.671Z,26.70
2018-05-13T00:24:07.392Z,20.40
2018-05-13T00:24:39.905Z,18.75
2018-05-13T00:25:12.482Z,26.73
2018-05-13T00:25:45.023Z,20.80
2018-05-13T00:26:17.551Z,17.48
2018-05-13T00:26:50.838Z,22.42
2018-05-13T00:27:23.538Z,17.20
2018-05-13T00:27:56.262Z,19.92
2018-05-13T00:28:28.775Z,22.77
2018-05-13T00:29:01.328Z,18.98
2018-05-13T00:29:33.864Z,21.55
2018-05-13T00:30:07.151Z,19.85
2018-05-13T00:30:39.676Z,19.73
2018-05-13T00:31:12.194Z,19.65
2018-05-13T00:31:44.731Z,20.90
2018-05-13T00:32:18.040Z,18.73
2018-05-13T00:32:50.549Z,18.73
2018-05-13T00:33:23.803Z,21.83
2018-05-13T00:33:56.521Z,19.62
2018-05-13T00:34:29.806Z,19.08
2018-05-13T00:35:02.364Z,25.85
2018-05-13T00:35:34.907Z,22.42
2018-05-13T00:36:07.688Z,24.85
2018-05-13T00:36:40.230Z,18.25
2018-05-13T00:37:12.827Z,18.67
2018-05-13T00:37:46.369Z,20.33
2018-05-13T00:38:19.681Z,17.60
2018-05-13T00:38:52.295Z,18.87
2018-05-13T00:39:24.814Z,25.45
2018-05-13T00:39:57.612Z,18.67
2018-05-13T00:40:36.420Z,26.50
2018-05-13T00:41:08.969Z,80.62
2018-05-13T00:41:43.495Z,49.35
2018-05-13T00:42:19.539Z,34.30
2018-05-13T00:42:52.085Z,25.70
2018-05-13T00:43:28.386Z,20.80
2018-05-13T00:44:01.227Z,23.45
2018-05-13T00:44:34.642Z,23.27
2018-05-13T00:45:07.172Z,21.70
2018-05-13T00:45:39.731Z,20.65
2018-05-13T00:46:13.724Z,16.80
2018-05-13T00:46:46.276Z,16.67
2018-05-13T00:47:18.820Z,19.02
2018-05-13T00:47:51.354Z,18.55
2018-05-13T00:48:23.915Z,21.37
2018-05-13T00:48:56.428Z,19.90
2018-05-13T00:49:28.967Z,17.98
2018-05-13T00:50:01.508Z,19.15
2018-05-13T00:50:34.081Z,19.67
2018-05-13T00:51:06.685Z,18.48
2018-05-13T00:51:39.262Z,25.67
2018-05-13T00:52:11.859Z,19.85
2018-05-13T00:52:44.372Z,21.45
2018-05-13T00:53:17.087Z,18.98
2018-05-13T00:53:49.620Z,19.30
2018-05-13T00:54:45.498Z,20.17
2018-05-13T00:55:18.036Z,25.50
2018-05-13T00:55:50.557Z,21.05
2018-05-13T00:56:23.072Z,19.05
2018-05-13T00:56:55.617Z,22.25
2018-05-13T00:57:28.180Z,21.52
2018-05-13T00:58:00.760Z,18.23
2018-05-13T00:58:33.839Z,17.77
2018-05-13T00:59:06.356Z,19.08
2018-05-13T00:59:38.897Z,20.48
2018-05-13T01:00:11.422Z,17.52
2018-05-13T01:00:43.942Z,20.85
2018-05-13T01:01:16.488Z,17.80
2018-05-13T01:01:49.811Z,19.75
2018-05-13T01:02:22.332Z,18.45
2018-05-13T01:02:54.933Z,19.05
2018-05-13T01:03:27.566Z,23.23
2018-05-13T01:04:01.580Z,19.60
2018-05-13T01:04:34.162Z,18.50
2018-05-13T01:05:06.687Z,20.12
2018-05-13T01:05:39.337Z,21.92
2018-05-13T01:06:11.877Z,18.85
2018-05-13T01:06:45.297Z,23.33
2018-05-13T01:07:17.818Z,19.48
2018-05-13T01:07:50.344Z,20.67
2018-05-13T01:08:23.643Z,20.30
2018-05-13T01:08:56.171Z,21.25
2018-05-13T01:09:28.721Z,16.20
2018-05-13T01:10:01.235Z,20.17
2018-05-13T01:10:33.756Z,22.48
2018-05-13T01:11:06.311Z,19.58
2018-05-13T01:11:38.871Z,19.92
2018-05-13T01:12:11.417Z,21.30
2018-05-13T01:12:43.966Z,20.85
2018-05-13T01:13:16.516Z,22.65
2018-05-13T01:13:49.087Z,20.17
2018-05-13T01:14:21.660Z,20.50
2018-05-13T01:14:54.204Z,22.17
2018-05-13T01:15:27.327Z,19.00
2018-05-13T01:15:59.885Z,21.75
2018-05-13T01:16:32.424Z,20.35
2018-05-13T01:17:05.225Z,18.85
2018-05-13T01:17:37.753Z,17.67
2018-05-13T01:18:10.891Z,19.30
2018-05-13T01:18:43.413Z,17.73
2018-05-13T01:19:16.124Z,21.00
2018-05-13T01:19:48.669Z,20.77
2018-05-13T01:20:21.429Z,21.60
2018-05-13T01:20:53.960Z,19.77
2018-05-13T01:21:26.595Z,20.27
2018-05-13T01:21:59.138Z,19.27
2018-05-13T01:22:32.607Z,19.62
2018-05-13T01:23:05.138Z,21.73
2018-05-13T01:23:37.743Z,17.75
2018-05-13T01:24:10.318Z,19.20
2018-05-13T01:24:42.934Z,21.20
2018-05-13T01:25:15.467Z,26.98
2018-05-13T01:25:48.749Z,22.17
2018-05-13T01:26:21.735Z,21.42
2018-05-13T01:26:54.389Z,19.25
2018-05-13T01:27:27.001Z,18.37
2018-05-13T01:27:59.554Z,20.42
2018-05-13T01:28:32.102Z,19.20
2018-05-13T01:29:04.641Z,23.83
2018-05-13T01:29:37.919Z,22.17
2018-05-13T01:30:10.468Z,18.98
2018-05-13T01:30:42.992Z,19.40
2018-05-13T01:31:15.508Z,21.70
2018-05-13T01:31:48.888Z,18.77
2018-05-13T01:32:21.464Z,20.50
2018-05-13T01:32:54.772Z,18.10
2018-05-13T01:33:27.342Z,20.90
2018-05-13T01:33:59.904Z,19.10
2018-05-13T01:34:32.427Z,18.62
2018-05-13T01:35:04.960Z,18.02
2018-05-13T01:35:41.051Z,19.50
2018-05-13T01:36:13.564Z,22.48
2018-05-13T01:36:46.540Z,22.20
2018-05-13T01:37:19.105Z,20.20
2018-05-13T01:37:51.640Z,19.10
2018-05-13T01:38:24.210Z,19.50
2018-05-13T01:38:57.595Z,20.23
2018-05-13T01:39:30.158Z,20.58
2018-05-13T01:40:03.086Z,22.67
2018-05-13T01:40:36.378Z,22.17
2018-05-13T01:41:09.715Z,18.90
2018-05-13T01:41:42.256Z,20.27
2018-05-13T01:42:14.795Z,19.10
2018-05-13T01:42:47.346Z,21.10
2018-05-13T01:43:20.007Z,19.87
2018-05-13T01:43:52.545Z,19.98
2018-05-13T01:44:25.118Z,22.75
2018-05-13T01:44:57.631Z,19.30
2018-05-13T01:45:30.245Z,27.30
2018-05-13T01:46:02.987Z,23.33
2018-05-13T01:46:35.592Z,20.98
2018-05-13T01:47:08.170Z,23.35
2018-05-13T01:47:40.701Z,22.05
2018-05-13T01:48:13.221Z,20.70
2018-05-13T01:48:45.781Z,21.50
2018-05-13T01:49:18.308Z,21.50
2018-05-13T01:49:50.830Z,22.13
2018-05-13T01:50:23.388Z,20.58
2018-05-13T01:50:55.931Z,23.85
2018-05-13T01:51:28.464Z,20.77
2018-05-13T01:52:00.992Z,22.42
2018-05-13T01:52:33.505Z,21.80
2018-05-13T01:53:06.032Z,24.90
2018-05-13T01:53:38.547Z,25.35
2018-05-13T01:54:11.100Z,23.08
2018-05-13T01:54:43.701Z,19.35
2018-05-13T01:55:16.259Z,23.17
2018-05-13T01:55:48.796Z,22.23
2018-05-13T01:56:21.401Z,20.02
2018-05-13T01:56:54.008Z,19.52
2018-05-13T01:57:27.307Z,21.70
2018-05-13T01:57:59.825Z,30.50
2018-05-13T01:58:32.384Z,25.90
2018-05-13T01:59:04.892Z,20.48
2018-05-13T01:59:37.412Z,21.85
2018-05-13T02:00:09.912Z,25.10
2018-05-13T02:00:43.220Z,21.95
2018-05-13T02:01:15.728Z,23.92
2018-05-13T02:01:48.247Z,22.67
2018-05-13T02:02:20.816Z,22.08
2018-05-13T02:02:53.405Z,21.67
2018-05-13T02:03:25.928Z,23.90
2018-05-13T02:03:58.443Z,21.62
2018-05-13T02:04:30.979Z,20.17
2018-05-13T02:05:03.528Z,24.42
2018-05-13T02:05:36.077Z,26.23
2018-05-13T02:06:08.619Z,22.37
2018-05-13T02:06:41.160Z,22.95
2018-05-13T02:07:13.956Z,19.33
2018-05-13T02:07:46.501Z,21.98
2018-05-13T02:08:19.124Z,21.70
2018-05-13T02:08:51.649Z,20.25
2018-05-13T02:09:24.190Z,22.50
2018-05-13T02:09:56.708Z,23.45
2018-05-13T02:10:29.270Z,25.15
2018-05-13T02:11:01.790Z,22.98
2018-05-13T02:11:34.320Z,21.77
2018-05-13T02:12:07.681Z,22.15
2018-05-13T02:12:40.210Z,20.95
2018-05-13T02:13:12.735Z,22.90
2018-05-13T02:13:45.299Z,22.70
2018-05-13T02:14:17.822Z,22.35
2018-05-13T02:14:50.327Z,23.33
2018-05-13T02:15:22.872Z,21.30
2018-05-13T02:15:55.394Z,25.73
2018-05-13T02:16:28.004Z,26.20
2018-05-13T02:17:00.548Z,23.48
2018-05-13T02:17:33.088Z,24.45
2018-05-13T02:18:05.624Z,20.48
2018-05-13T02:18:38.143Z,23.58
2018-05-13T02:19:10.678Z,25.70
2018-05-13T02:19:43.982Z,21.10
2018-05-13T02:20:16.501Z,22.52
2018-05-13T02:20:49.035Z,22.50
2018-05-13T02:21:21.717Z,23.75
2018-05-13T02:21:54.231Z,27.20
2018-05-13T02:22:26.738Z,22.02
2018-05-13T02:22:59.254Z,23.30
2018-05-13T02:23:31.788Z,26.12
2018-05-13T02:24:04.347Z,20.77
2018-05-13T02:24:36.885Z,22.83
2018-05-13T02:25:09.396Z,25.12
2018-05-13T02:25:42.693Z,22.05
2018-05-13T02:26:15.255Z,20.92
2018-05-13T02:26:47.775Z,23.90
2018-05-13T02:27:20.293Z,21.65
2018-05-13T02:27:52.808Z,23.67
2018-05-13T02:28:25.327Z,23.85
2018-05-13T02:28:57.845Z,22.83
2018-05-13T02:29:30.420Z,25.98
2018-05-13T02:30:02.965Z,23.33
2018-05-13T02:30:35.488Z,23.15
2018-05-13T02:31:08.039Z,23.52
2018-05-13T02:31:40.560Z,23.65
2018-05-13T02:32:13.270Z,24.65
2018-05-13T02:32:45.779Z,25.23
2018-05-13T02:33:18.296Z,24.48
2018-05-13T02:33:50.819Z,24.67
2018-05-13T02:34:23.383Z,26.65
2018-05-13T02:34:55.925Z,22.55
2018-05-13T02:35:28.490Z,23.05
2018-05-13T02:36:01.214Z,25.85
2018-05-13T02:36:33.719Z,24.90
2018-05-13T02:37:06.239Z,25.65
2018-05-13T02:37:38.782Z,26.02
2018-05-13T02:38:12.081Z,22.10
2018-05-13T02:38:44.599Z,25.45
2018-05-13T02:39:18.007Z,25.08
2018-05-13T02:39:50.793Z,23.75
2018-05-13T02:40:23.314Z,26.20
2018-05-13T02:40:55.852Z,22.70
2018-05-13T02:41:28.375Z,25.80
2018-05-13T02:42:00.922Z,25.08
2018-05-13T02:42:33.446Z,26.02
2018-05-13T02:43:05.964Z,25.10
2018-05-13T02:43:38.476Z,22.95
2018-05-13T02:44:11.073Z,23.73
2018-05-13T02:44:44.354Z,28.12
2018-05-13T02:45:16.869Z,25.50
2018-05-13T02:45:49.381Z,27.55
2018-05-13T02:46:21.909Z,25.35
2018-05-13T02:46:54.460Z,26.02
2018-05-13T02:47:27.007Z,23.90
2018-05-13T02:47:59.676Z,26.05
2018-05-13T02:48:32.200Z,24.65
2018-05-13T02:49:04.727Z,26.83
2018-05-13T02:49:37.243Z,27.13
2018-05-13T02:50:09.774Z,26.48
2018-05-13T02:50:42.285Z,25.42
2018-05-13T02:51:14.816Z,27.33
2018-05-13T02:51:47.394Z,24.20
2018-05-13T02:52:19.950Z,26.15
2018-05-13T02:52:52.522Z,28.90
2018-05-13T02:53:25.025Z,27.45
2018-05-13T02:53:57.591Z,26.20
2018-05-13T02:54:30.105Z,28.70
2018-05-13T02:55:02.641Z,29.42
2018-05-13T02:55:35.156Z,27.00
2018-05-13T02:56:07.700Z,26.90
2018-05-13T02:56:41.001Z,28.00
2018-05-13T02:57:13.571Z,32.70
2018-05-13T02:57:46.084Z,33.00
2018-05-13T02:58:18.640Z,26.60
2018-05-13T02:58:51.366Z,28.33
2018-05-13T02:59:23.928Z,30.75
2018-05-13T02:59:56.445Z,27.20
2018-05-13T03:00:28.990Z,27.42
2018-05-13T03:01:01.534Z,27.13
2018-05-13T03:01:34.048Z,26.45
2018-05-13T03:02:06.567Z,26.45
2018-05-13T03:02:39.121Z,26.37
2018-05-13T03:03:11.649Z,27.23
2018-05-13T03:03:44.212Z,29.27
2018-05-13T03:04:17.491Z,29.35
2018-05-13T03:04:50.038Z,27.52
2018-05-13T03:05:22.571Z,26.75
2018-05-13T03:05:55.117Z,30.90
2018-05-13T03:06:27.672Z,31.95
2018-05-13T03:07:00.196Z,32.38
2018-05-13T03:07:33.489Z,28.80
2018-05-13T03:08:06.056Z,27.40
2018-05-13T03:08:38.582Z,30.50
2018-05-13T03:09:11.108Z,29.58
2018-05-13T03:09:43.660Z,28.92
2018-05-13T03:10:16.194Z,28.40
2018-05-13T03:10:49.504Z,26.27
2018-05-13T03:11:22.066Z,30.60
2018-05-13T03:11:54.612Z,30.52
2018-05-13T03:12:27.157Z,30.42
2018-05-13T03:12:59.693Z,28.02
2018-05-13T03:13:32.216Z,29.75
2018-05-13T03:14:04.725Z,27.80
2018-05-13T03:14:37.251Z,27.33
2018-05-13T03:15:09.774Z,33.90
2018-05-13T03:15:42.300Z,28.38
2018-05-13T03:16:14.844Z,29.40
2018-05-13T03:16:47.380Z,29.00
2018-05-13T03:17:19.944Z,27.62
2018-05-13T03:17:52.476Z,30.55
2018-05-13T03:18:25.011Z,29.90
2018-05-13T03:18:57.604Z,35.80
2018-05-13T03:19:30.128Z,34.65
2018-05-13T03:20:02.652Z,28.12
2018-05-13T03:20:35.972Z,30.88
2018-05-13T03:21:08.484Z,30.15
2018-05-13T03:21:41.022Z,29.27
2018-05-13T03:22:13.563Z,32.97
2018-05-13T03:22:46.092Z,31.08
2018-05-13T03:23:19.394Z,31.17
2018-05-13T03:23:51.931Z,28.08
2018-05-13T03:24:24.495Z,28.75
2018-05-13T03:24:57.025Z,31.12
2018-05-13T03:25:29.537Z,34.13
2018-05-13T03:26:02.079Z,30.00
2018-05-13T03:26:34.600Z,33.55
2018-05-13T03:27:07.107Z,30.55
2018-05-13T03:27:39.640Z,33.65
2018-05-13T03:28:12.165Z,31.65
2018-05-13T03:28:44.693Z,35.13
2018-05-13T03:29:17.240Z,29.63
2018-05-13T03:29:49.801Z,27.27
2018-05-13T03:30:22.330Z,34.20
2018-05-13T03:30:54.869Z,30.95
2018-05-13T03:31:28.161Z,29.83
2018-05-13T03:32:00.696Z,27.65
2018-05-13T03:32:33.245Z,27.10
2018-05-13T03:33:05.784Z,31.50
2018-05-13T03:33:38.317Z,32.67
2018-05-13T03:34:10.843Z,31.50
2018-05-13T03:34:43.390Z,26.92
2018-05-13T03:35:15.992Z,28.48
2018-05-13T03:35:49.302Z,29.92
2018-05-13T03:36:21.915Z,34.38
2018-05-13T03:36:54.469Z,31.12
2018-05-13T03:37:27.001Z,30.12
2018-05-13T03:37:59.552Z,29.52
2018-05-13T03:38:32.179Z,33.90
2018-05-13T03:39:04.732Z,31.33
2018-05-13T03:39:37.249Z,36.95
2018-05-13T03:40:09.799Z,34.35
2018-05-13T03:40:42.362Z,32.92
2018-05-13T03:41:14.891Z,34.60
2018-05-13T03:41:47.453Z,31.58
2018-05-13T03:42:20.010Z,39.05
2018-05-13T03:42:52.564Z,32.78
2018-05-13T03:43:25.386Z,30.48
2018-05-13T03:43:57.917Z,32.97
2018-05-13T03:44:30.475Z,30.15
2018-05-13T03:45:03.094Z,30.52
2018-05-13T03:45:35.632Z,33.05
2018-05-13T03:46:08.943Z,31.58
2018-05-13T03:46:41.476Z,33.38
2018-05-13T03:47:14.014Z,31.90
2018-05-13T03:47:46.572Z,34.30
2018-05-13T03:48:19.127Z,29.80
2018-05-13T03:48:51.662Z,29.77
2018-05-13T03:49:24.203Z,34.75
2018-05-13T03:49:56.754Z,33.13
2018-05-13T03:50:30.093Z,32.38
2018-05-13T03:51:02.631Z,34.58
2018-05-13T03:51:35.210Z,33.47
2018-05-13T03:52:07.759Z,32.20
2018-05-13T03:52:40.282Z,34.13
2018-05-13T03:53:12.802Z,35.13
2018-05-13T03:53:45.321Z,31.77
2018-05-13T03:54:18.630Z,32.17
2018-05-13T03:54:51.144Z,33.88
2018-05-13T03:55:23.711Z,35.10
2018-05-13T03:55:56.240Z,34.28
2018-05-13T03:56:28.767Z,34.47
2018-05-13T03:57:01.317Z,32.85
2018-05-13T03:57:34.606Z,33.33
2018-05-13T03:58:07.144Z,32.58
2018-05-13T03:58:39.663Z,33.78
2018-05-13T03:59:12.193Z,33.00
2018-05-13T03:59:45.492Z,32.45
2018-05-13T04:00:18.013Z,31.60
2018-05-13T04:00:50.583Z,33.88
2018-05-13T04:01:23.194Z,36.88
2018-05-13T04:01:55.730Z,36.95
2018-05-13T04:02:28.270Z,35.42
2018-05-13T04:03:00.808Z,32.65
2018-05-13T04:03:33.351Z,30.45
2018-05-13T04:04:05.872Z,36.20
2018-05-13T04:04:39.195Z,35.55
2018-05-13T04:05:11.732Z,31.58
2018-05-13T04:05:45.065Z,35.28
2018-05-13T04:06:17.614Z,34.83
2018-05-13T04:06:50.128Z,37.58
2018-05-13T04:07:22.708Z,31.80
2018-05-13T04:09:20.926Z,33.22
2018-05-13T04:10:16.919Z,32.70
2018-05-13T04:11:01.029Z,37.22
2018-05-13T04:11:45.365Z,35.90
2018-05-13T04:12:29.605Z,34.25
2018-05-13T04:13:13.774Z,35.15
2018-05-13T04:13:58.109Z,38.35
2018-05-13T04:14:42.319Z,34.17
2018-05-13T04:15:17.750Z,34.53
2018-05-13T04:15:51.045Z,36.92
2018-05-13T04:16:23.574Z,37.10
2018-05-13T04:16:56.089Z,36.55
2018-05-13T04:17:28.654Z,33.63
2018-05-13T04:18:01.180Z,35.13
2018-05-13T04:18:33.741Z,39.95
2018-05-13T04:19:07.044Z,35.17
2018-05-13T04:19:39.592Z,36.33
2018-05-13T04:20:12.117Z,36.90
2018-05-13T04:20:44.664Z,37.75
2018-05-13T04:21:17.201Z,35.92
2018-05-13T04:21:49.754Z,34.80
2018-05-13T04:22:22.297Z,34.83
2018-05-13T04:22:55.613Z,36.63
2018-05-13T04:23:28.166Z,36.47
2018-05-13T04:24:00.693Z,37.30
2018-05-13T04:24:33.264Z,34.75
2018-05-13T04:25:05.798Z,38.67
2018-05-13T04:25:38.337Z,36.58
2018-05-13T04:26:10.866Z,31.73
2018-05-13T04:26:44.176Z,38.13
2018-05-13T04:27:16.717Z,35.75
2018-05-13T04:27:49.264Z,34.78
2018-05-13T04:28:21.965Z,34.80
2018-05-13T04:28:54.515Z,32.90
2018-05-13T04:29:27.051Z,35.97
2018-05-13T04:29:59.603Z,33.25
2018-05-13T04:30:32.184Z,37.83
2018-05-13T04:31:04.716Z,36.35
2018-05-13T04:31:37.251Z,37.80
2018-05-13T04:32:09.768Z,35.55
2018-05-13T04:32:42.303Z,33.45
2018-05-13T04:33:14.820Z,37.38
2018-05-13T04:33:48.109Z,35.30
2018-05-13T04:34:21.412Z,37.65
2018-05-13T04:34:53.940Z,34.38
2018-05-13T04:35:26.478Z,32.58
2018-05-13T04:35:58.996Z,35.25
2018-05-13T04:36:31.541Z,36.97
2018-05-13T04:37:04.176Z,34.72
2018-05-13T04:37:36.716Z,39.83
2018-05-13T04:38:09.271Z,31.73
2018-05-13T04:38:41.826Z,35.95
2018-05-13T04:39:14.374Z,38.20
2018-05-13T04:39:46.945Z,40.50
2018-05-13T04:40:19.489Z,35.83
2018-05-13T04:40:52.026Z,35.22
2018-05-13T04:41:24.596Z,35.47
2018-05-13T04:41:57.137Z,33.05
2018-05-13T04:42:29.761Z,33.58
2018-05-13T04:43:02.304Z,33.53
2018-05-13T04:43:34.830Z,38.38
2018-05-13T04:44:07.356Z,35.60
2018-05-13T04:44:39.898Z,34.15
2018-05-13T04:45:13.205Z,35.30
2018-05-13T04:45:45.732Z,33.25
2018-05-13T04:46:18.255Z,31.62
2018-05-13T04:46:50.776Z,33.47
2018-05-13T04:47:23.320Z,36.03
2018-05-13T04:47:56.605Z,36.88
2018-05-13T04:48:29.155Z,36.63
2018-05-13T04:49:01.680Z,35.83
2018-05-13T04:49:34.215Z,39.67
2018-05-13T04:50:06.756Z,35.53
2018-05-13T04:50:40.037Z,35.53
2018-05-13T04:51:12.557Z,37.00
2018-05-13T04:51:45.097Z,35.55
2018-05-13T04:52:17.670Z,33.10
2018-05-13T04:52:50.188Z,37.63
2018-05-13T04:53:23.583Z,31.70
2018-05-13T04:53:56.121Z,31.37
2018-05-13T04:54:28.632Z,32.25
2018-05-13T04:55:01.185Z,32.15
2018-05-13T04:55:33.720Z,33.72
2018-05-13T04:56:06.243Z,36.33
2018-05-13T04:56:38.773Z,35.63
2018-05-13T04:57:11.309Z,37.70
2018-05-13T04:57:43.829Z,32.50
2018-05-13T04:58:16.373Z,35.78
2018-05-13T04:58:48.896Z,35.28
2018-05-13T04:59:22.080Z,33.25
2018-05-13T04:59:54.601Z,34.42
2018-05-13T05:00:27.125Z,36.67
2018-05-13T05:01:00.431Z,40.60
2018-05-13T05:01:32.988Z,31.48
2018-05-13T05:02:05.516Z,33.72
2018-05-13T05:02:38.059Z,35.65
2018-05-13T05:03:10.577Z,34.08
2018-05-13T05:03:43.103Z,32.65
2018-05-13T05:04:15.617Z,36.97
2018-05-13T05:04:48.133Z,29.23
2018-05-13T05:05:21.586Z,33.67
2018-05-13T05:05:54.133Z,33.78
2018-05-13T05:06:26.670Z,35.97
2018-05-13T05:06:59.216Z,37.03
2018-05-13T05:07:31.744Z,35.65
2018-05-13T05:08:04.291Z,33.10
2018-05-13T05:08:36.904Z,33.58
2018-05-13T05:09:09.445Z,36.47
2018-05-13T05:09:41.998Z,32.05
2018-05-13T05:10:14.534Z,37.83
2018-05-13T05:10:47.060Z,36.90
2018-05-13T05:11:19.597Z,35.10
2018-05-13T05:11:52.150Z,35.80
2018-05-13T05:12:24.744Z,35.35
2018-05-13T05:12:58.037Z,32.92
2018-05-13T05:13:30.588Z,38.25
2018-05-13T05:14:03.128Z,32.10
2018-05-13T05:14:35.677Z,32.90
2018-05-13T05:15:08.207Z,39.47
2018-05-13T05:15:40.768Z,32.33
2018-05-13T05:16:13.299Z,37.58
2018-05-13T05:16:45.856Z,33.40
2018-05-13T05:17:18.423Z,32.15
2018-05-13T05:17:50.984Z,35.45
2018-05-13T05:18:23.547Z,37.47
2018-05-13T05:18:56.115Z,32.85
2018-05-13T05:19:28.696Z,32.80
2018-05-13T05:20:01.267Z,32.88
2018-05-13T05:20:33.815Z,31.00
2018-05-13T05:21:06.340Z,35.13
2018-05-13T05:21:38.851Z,36.47
2018-05-13T05:22:12.146Z,31.40
2018-05-13T05:22:44.733Z,32.03
2018-05-13T05:23:17.315Z,34.33
2018-05-13T05:23:49.870Z,30.25
2018-05-13T05:24:22.405Z,34.67
2018-05-13T05:24:54.941Z,36.25
2018-05-13T05:25:27.463Z,30.40
2018-05-13T05:26:00.011Z,34.90
2018-05-13T05:26:32.524Z,35.17
2018-05-13T05:27:05.045Z,34.70
2018-05-13T05:27:38.366Z,34.15
2018-05-13T05:28:10.913Z,31.20
2018-05-13T05:28:43.501Z,32.22
2018-05-13T05:29:16.044Z,32.28
2018-05-13T05:29:48.606Z,33.75
2018-05-13T05:30:21.158Z,29.85
2018-05-13T05:30:53.698Z,29.75
2018-05-13T05:31:26.221Z,33.13
2018-05-13T05:31:58.751Z,29.83
2018-05-13T05:32:31.287Z,30.92
2018-05-13T05:33:03.863Z,33.40
2018-05-13T05:33:36.427Z,30.98
2018-05-13T05:34:08.956Z,32.35
2018-05-13T05:34:41.480Z,28.33
2018-05-13T05:35:14.032Z,30.65
2018-05-13T05:35:46.637Z,30.17
2018-05-13T05:36:19.140Z,31.02
2018-05-13T05:36:51.665Z,30.12
2018-05-13T05:37:24.253Z,30.25
2018-05-13T05:37:56.744Z,30.77
2018-05-13T05:38:29.295Z,29.35
2018-05-13T05:39:01.841Z,34.22
2018-05-13T05:39:35.150Z,29.37
2018-05-13T05:40:07.675Z,31.35
2018-05-13T05:40:41.000Z,31.70
2018-05-13T05:41:13.543Z,33.53
2018-05-13T05:41:46.092Z,31.02
2018-05-13T05:42:18.674Z,32.45
2018-05-13T05:42:51.197Z,33.40
2018-05-13T05:43:23.744Z,29.33
2018-05-13T05:43:56.281Z,28.77
2018-05-13T05:44:28.804Z,30.35
2018-05-13T05:45:02.072Z,28.55
2018-05-13T05:45:34.601Z,28.65
2018-05-13T05:46:07.144Z,28.50
2018-05-13T05:46:39.663Z,30.95
2018-05-13T05:47:13.330Z,28.95
2018-05-13T05:47:45.861Z,29.77
2018-05-13T05:48:18.477Z,31.87
2018-05-13T05:48:50.926Z,32.83
2018-05-13T05:49:23.547Z,31.70
2018-05-13T05:49:56.075Z,29.00
2018-05-13T05:50:28.660Z,30.70
2018-05-13T05:51:01.175Z,28.77
2018-05-13T05:51:33.738Z,31.48
2018-05-13T05:52:06.282Z,30.15
2018-05-13T05:52:38.795Z,28.95
2018-05-13T05:53:12.092Z,27.90
2018-05-13T05:53:44.625Z,30.15
2018-05-13T05:54:17.133Z,32.08
2018-05-13T05:54:49.670Z,27.83
2018-05-13T05:55:22.209Z,29.80
2018-05-13T05:55:54.716Z,27.13
2018-05-13T05:56:28.375Z,29.65
2018-05-13T05:57:00.983Z,30.98
2018-05-13T05:57:33.526Z,32.58
2018-05-13T05:58:06.061Z,31.77
2018-05-13T05:58:38.592Z,28.45
2018-05-13T05:59:11.102Z,30.42
2018-05-13T05:59:43.620Z,29.60
2018-05-13T06:00:16.132Z,26.98
2018-05-13T06:00:49.449Z,28.92
2018-05-13T06:01:22.020Z,26.60
2018-05-13T06:01:54.556Z,27.98
2018-05-13T06:02:27.121Z,28.52
2018-05-13T06:02:59.683Z,27.62
2018-05-13T06:03:32.248Z,29.73
2018-05-13T06:04:04.771Z,34.17
2018-05-13T06:04:37.312Z,26.87
2018-05-13T06:05:09.838Z,29.40
2018-05-13T06:05:42.357Z,27.48
2018-05-13T06:06:14.867Z,30.67
2018-05-13T06:06:47.383Z,27.15
2018-05-13T06:07:19.905Z,29.40
2018-05-13T06:07:52.432Z,26.15
2018-05-13T06:08:24.963Z,27.17
2018-05-13T06:08:57.505Z,28.67
2018-05-13T06:09:30.035Z,30.20
2018-05-13T06:10:02.564Z,27.23
2018-05-13T06:10:35.087Z,26.52
2018-05-13T06:11:07.632Z,27.33
2018-05-13T06:11:40.170Z,29.98
2018-05-13T06:12:12.729Z,26.50
2018-05-13T06:12:45.262Z,26.98
2018-05-13T06:13:17.776Z,27.45
2018-05-13T06:13:50.307Z,28.50
2018-05-13T06:14:22.832Z,27.15
2018-05-13T06:14:55.355Z,32.47
2018-05-13T06:15:28.686Z,27.33
2018-05-13T06:16:01.237Z,26.75
2018-05-13T06:16:33.784Z,25.92
2018-05-13T06:17:06.313Z,30.35
2018-05-13T06:17:38.841Z,29.87
2018-05-13T06:18:11.388Z,27.70
2018-05-13T06:18:43.955Z,27.50
2018-05-13T06:19:16.470Z,32.25
2018-05-13T06:19:49.768Z,25.52
2018-05-13T06:20:22.364Z,29.52
2018-05-13T06:20:54.886Z,30.17
2018-05-13T06:21:27.434Z,24.80
2018-05-13T06:21:59.988Z,28.50
2018-05-13T06:22:32.529Z,29.35
2018-05-13T06:23:05.041Z,28.98
2018-05-13T06:23:38.356Z,25.95
2018-05-13T06:24:10.884Z,28.75
2018-05-13T06:24:43.413Z,26.17
2018-05-13T06:25:15.956Z,32.85
2018-05-13T06:25:48.495Z,25.50
2018-05-13T06:26:21.033Z,26.20
2018-05-13T06:26:53.665Z,25.85
2018-05-13T06:27:26.208Z,25.17
2018-05-13T06:27:58.740Z,25.23
2018-05-13T06:28:32.149Z,27.60
2018-05-13T06:29:04.672Z,25.35
2018-05-13T06:29:37.385Z,25.10
2018-05-13T06:30:48.783Z,26.87
2018-05-13T06:31:21.331Z,26.02
2018-05-13T06:31:53.931Z,34.83
2018-05-13T06:32:26.394Z,25.65
2018-05-13T06:32:58.954Z,25.90
2018-05-13T06:33:31.473Z,25.02
2018-05-13T06:34:04.036Z,24.25
2018-05-13T06:34:36.597Z,25.85
2018-05-13T06:35:09.161Z,24.80
2018-05-13T06:35:41.710Z,26.30
2018-05-13T06:36:15.009Z,23.30
2018-05-13T06:36:47.550Z,24.85
2018-05-13T06:37:20.087Z,24.87
2018-05-13T06:37:52.615Z,31.75
2018-05-13T06:38:25.152Z,24.85
2018-05-13T06:38:57.686Z,29.00
2018-05-13T06:39:30.288Z,31.15
2018-05-13T06:40:03.556Z,26.40
2018-05-13T06:40:36.107Z,25.08
2018-05-13T06:41:08.636Z,28.65
2018-05-13T06:41:41.145Z,24.10
2018-05-13T06:42:13.678Z,25.70
2018-05-13T06:42:46.200Z,25.20
2018-05-13T06:43:18.745Z,25.05
2018-05-13T06:43:51.320Z,26.33
2018-05-13T06:44:23.882Z,23.95
2018-05-13T06:44:56.447Z,25.83
2018-05-13T06:45:28.993Z,25.23
2018-05-13T06:46:01.551Z,25.55
2018-05-13T06:46:34.083Z,24.25
2018-05-13T06:47:06.610Z,25.05
2018-05-13T06:47:39.150Z,26.52
2018-05-13T06:48:11.667Z,24.70
2018-05-13T06:48:44.188Z,23.70
2018-05-13T06:49:16.715Z,25.58
2018-05-13T06:49:49.262Z,28.00
2018-05-13T06:50:21.828Z,26.12
2018-05-13T06:50:54.388Z,25.67
2018-05-13T06:51:27.001Z,24.27
2018-05-13T06:51:59.481Z,24.90
2018-05-13T06:52:32.018Z,27.27
2018-05-13T06:53:04.582Z,24.45
2018-05-13T06:53:37.105Z,24.55
2018-05-13T06:54:09.624Z,25.35
2018-05-13T06:54:42.158Z,25.52
2018-05-13T06:55:14.718Z,30.62
2018-05-13T06:55:48.000Z,24.17
2018-05-13T06:56:20.542Z,25.40
2018-05-13T06:56:53.183Z,23.35
2018-05-13T06:57:25.800Z,22.80
2018-05-13T06:57:58.275Z,27.05
2018-05-13T06:58:30.800Z,24.02
2018-05-13T06:59:03.343Z,24.42
2018-05-13T06:59:35.880Z,23.70
2018-05-13T07:00:08.401Z,24.33
2018-05-13T07:00:40.931Z,25.37
2018-05-13T07:01:14.584Z,27.37
2018-05-13T07:01:47.103Z,22.05
2018-05-13T07:02:19.634Z,27.35
2018-05-13T07:02:52.186Z,22.85
2018-05-13T07:03:24.724Z,28.85
2018-05-13T07:03:57.244Z,22.85
2018-05-13T07:04:29.780Z,22.48